ANACAPA ISLAND CA US current weather conditions

sailwx.info

Wind from 296 at 7 knots gusting 13

Air temperature 16.1° C
Dewpoint 11.7° C

Last reported at 2015-Apr-25 00:23 UTC.
Time now 2015-Apr-25 02:05 UTC

Location: N 34°01' W 119°22'.
View on Google Maps.

See reports from other nearby stations

  
Tides and Currents Weather Stations Pressure Air Temp Water Temp Dewpoint Dewpoint Depression Visibility Wind Speed Wind Dir Waves Ship Positions
date/time (UTC)wind fromknots sea level pressurealtimeterstation pressurevisibilityair tempwater tempwave heightnotes
2015-Apr-25 00:23 296 7 gusting 13 16.1
2015-Apr-24 23:23 290 8 gusting 15 15.6
2015-Apr-24 22:23 303 4 gusting 9 17.8
2015-Apr-24 21:23 299 5 gusting 9 18.3
2015-Apr-24 20:23 285 4 gusting 11 18.3
2015-Apr-24 19:23 304 6 gusting 10 17.8
2015-Apr-24 18:23 308 6 gusting 10 16.1
2015-Apr-24 17:23 308 5 gusting 8 16.7
2015-Apr-24 16:23 309 4 gusting 8 15.0
2015-Apr-24 15:23 332 5 gusting 9 14.4
2015-Apr-24 14:23 306 5 gusting 12 13.3
2015-Apr-24 13:23 300 6 gusting 14 12.2
2015-Apr-24 12:23 300 9 gusting 15 12.8
2015-Apr-24 11:23 301 8 gusting 15 12.8
2015-Apr-24 10:23 299 8 gusting 14 12.8
2015-Apr-24 09:23 297 8 gusting 13 12.8
2015-Apr-24 08:23 291 6 gusting 13 13.3
2015-Apr-24 07:23 290 8 gusting 13 13.3
2015-Apr-24 06:23 294 9 gusting 13 13.3
2015-Apr-24 05:23 287 6 gusting 12 13.9
2015-Apr-24 04:23 295 7 gusting 13 13.9
2015-Apr-24 03:23 294 6 gusting 13 13.9
2015-Apr-24 02:23 311 7 gusting 12 13.9
2015-Apr-24 01:23 303 6 gusting 12 13.9
2015-Apr-24 00:23 306 7 gusting 12 14.4
2015-Apr-23 23:23 330 5 gusting 9 16.1
2015-Apr-23 22:23 307 4 gusting 8 17.2
2015-Apr-23 21:23 299 5 gusting 8 17.8
2015-Apr-23 20:23 307 4 gusting 7 16.7
2015-Apr-23 19:23 325 4 gusting 7 16.1
2015-Apr-23 18:23 330 6 gusting 10 15.0
2015-Apr-23 17:23 332 6 gusting 10 14.4
2015-Apr-23 16:23 344 6 gusting 10 13.9
2015-Apr-23 15:23 346 7 gusting 11 13.9
2015-Apr-23 14:23 340 6 gusting 12 13.3
2015-Apr-23 13:23 318 6 gusting 13 12.8
2015-Apr-23 12:23 317 6 gusting 14 12.8
2015-Apr-23 11:23 314 6 gusting 14 12.8
2015-Apr-23 10:23 304 9 gusting 15 12.8
2015-Apr-23 09:23 295 8 gusting 15 12.8
2015-Apr-23 08:23 293 8 gusting 14 13.3
2015-Apr-23 07:23 292 7 gusting 13 13.3
2015-Apr-23 06:23 290 8 gusting 13 13.3
2015-Apr-23 05:23 301 7 gusting 13 13.3
2015-Apr-23 04:23 303 6 gusting 13 13.3
2015-Apr-23 03:23 301 4 gusting 8 14.4
2015-Apr-23 02:23 290 4 gusting 8 14.4